Ole-arvid Nergaard — LLAY — position and weather

sailwx.info

Track history (hours):
 
Tides and Currents Weather Stations Pressure Air Temp Water Temp Dewpoint Dewpoint Depression Visibility Wind Speed Wind Dir Waves Ship Positions

Ole-arvid Nergaard

Last reported at 2018-Jun-13 15:03 UTC. Time now 2018-Jun-23 17:42 UTC.
Position N 70°16' E 018°04'.
Warning: this ship's position is 10 days out of date.

Length 55 m; draft 7.2 m.

Type: Fishing. MMSI: 259656000.

Date/timePositionNaut miles runAvg speedWind from/ knotsBaromVisibWave heightAir tempDewpointWater temp
2018-Jun-13 15:03N 70°16' E 018°04'111.9
2018-Jun-13 15:00N 70°16' E 018°05'611.5
2018-Jun-13 14:29N 70°10' E 018°06'611.4
2018-Jun-13 14:00N 70°04' E 018°08'611.4
2018-Jun-13 13:30N 69°59' E 018°10'510.7
2018-Jun-13 13:00N 69°56' E 018°25'611.5
2018-Jun-13 12:30N 69°55' E 018°41'611.9
2018-Jun-13 12:00N 69°51' E 018°54'611.9
2018-Jun-13 11:30N 69°46' E 019°04'4 7.8
2018-Jun-13 11:00N 69°42' E 019°03'2 4.6
2018-Jun-13 10:30N 69°40' E 018°59'1 1.8
2018-Jun-13 10:00N 69°40' E 018°58'0 0.0
2018-Jun-13 09:29N 69°40' E 018°58'0 0.0
2018-Jun-13 09:00N 69°40' E 018°58'0 0.0
2018-Jun-13 08:30N 69°40' E 018°58'0 0.0
2018-Jun-13 08:00N 69°40' E 018°58'0 0.0
2018-Jun-13 07:30N 69°40' E 018°58'0 0.0
2018-Jun-13 06:59N 69°40' E 018°58'0 0.0
2018-Jun-13 06:29N 69°40' E 018°58'0 0.0
2018-Jun-13 06:01N 69°40' E 018°58'0 0.0
2018-Jun-13 05:30N 69°40' E 018°58'0 0.0
2018-Jun-13 04:59N 69°40' E 018°58'0 0.0
2018-Jun-13 04:30N 69°40' E 018°58'0 0.1
2018-Jun-13 04:00N 69°40' E 018°58'4 8.1
2018-Jun-13 03:30N 69°43' E 019°03'510.1
2018-Jun-13 02:59N 69°48' E 019°01'5 9.7
2018-Jun-13 02:30N 69°52' E 018°52'510.9
2018-Jun-13 02:00N 69°55' E 018°39'510.7
2018-Jun-13 01:30N 69°57' E 018°24'510.1
2018-Jun-13 01:00N 69°58' E 018°10'611.2
2018-Jun-13 00:30N 70°04' E 018°11'611.5
2018-Jun-13 00:00N 70°10' E 018°13'611.6
2018-Jun-12 23:29N 70°16' E 018°12'  
2018-Jun-09 01:16N 69°58' E 016°57'711.2
2018-Jun-09 00:37N 69°54' E 016°39'112.3
2018-Jun-09 00:30N 69°52' E 016°39'612.6
2018-Jun-09 00:01N 69°47' E 016°28'612.4
2018-Jun-08 23:30N 69°42' E 016°17'612.2
2018-Jun-08 23:00N 69°37' E 016°07'4 8.0
2018-Jun-08 22:30N 69°34' E 015°59'1 2.8
2018-Jun-08 22:00N 69°36' E 015°58'2 3.6
2018-Jun-08 21:30N 69°38' E 015°57'2 3.6
2018-Jun-08 21:00N 69°39' E 015°58'2 3.9
2018-Jun-08 20:30N 69°40' E 016°03'2 4.2
2018-Jun-08 20:00N 69°40' E 016°09'2 4.2
2018-Jun-08 19:30N 69°40' E 016°15'2 4.4
2018-Jun-08 19:00N 69°38' E 016°19'2 3.5
2018-Jun-08 18:30N 69°37' E 016°24'5 9.1
2018-Jun-08 18:00N 69°38' E 016°37'611.3
2018-Jun-08 17:30N 69°38' E 016°53'611.2
2018-Jun-08 17:00N 69°39' E 017°09'511.1
2018-Jun-08 16:30N 69°39' E 017°25'611.1
2018-Jun-08 16:00N 69°40' E 017°41'510.3
2018-Jun-08 15:30N 69°36' E 017°52'612.0
2018-Jun-08 14:59N 69°32' E 018°04'611.3
2018-Jun-08 14:30N 69°31' E 018°20'611.3
2018-Jun-08 14:00N 69°33' E 018°35'511.2
2018-Jun-08 13:30N 69°35' E 018°50'4 7.3
2018-Jun-08 13:00N 69°38' E 018°57'0 0.0
2018-Jun-08 12:30N 69°38' E 018°57'0 0.0
2018-Jun-08 12:00N 69°38' E 018°57'0 0.0
2018-Jun-08 11:30N 69°38' E 018°57'0 0.0
2018-Jun-08 11:00N 69°38' E 018°57'0 0.0
2018-Jun-08 10:30N 69°38' E 018°57'0 0.0
2018-Jun-08 10:00N 69°38' E 018°57'0 0.0
2018-Jun-08 09:30N 69°38' E 018°57'0 0.0
2018-Jun-08 09:00N 69°38' E 018°57'0 0.0
2018-Jun-08 08:30N 69°38' E 018°57'0 0.0
2018-Jun-08 07:59N 69°38' E 018°57'0 0.0
2018-Jun-08 07:30N 69°38' E 018°57'0 0.0
2018-Jun-08 07:01N 69°38' E 018°57'0 0.0
2018-Jun-08 06:31N 69°38' E 018°57'1 1.5
2018-Jun-08 06:00N 69°37' E 018°55'0 0.3
2018-Jun-08 05:30N 69°37' E 018°54'0 0.4
2018-Jun-08 05:00N 69°37' E 018°54'0 0.6
2018-Jun-08 04:30N 69°37' E 018°55'3 5.1
2018-Jun-08 04:00N 69°39' E 018°59'1 2.5
2018-Jun-08 03:31N 69°40' E 018°59'0 0.0
2018-Jun-08 03:01N 69°40' E 018°59'4 8.3
2018-Jun-08 02:30N 69°37' E 018°54'611.7
2018-Jun-08 02:01N 69°33' E 018°41'611.4
2018-Jun-08 01:30N 69°31' E 018°25'611.1
2018-Jun-08 01:00N 69°31' E 018°09'511.0
2018-Jun-08 00:30N 69°34' E 017°57'510.8
2018-Jun-08 00:01N 69°39' E 017°48'510.5
2018-Jun-07 23:29N 69°40' E 017°32'510.6
2018-Jun-07 23:01N 69°38' E 017°19'510.4
2018-Jun-07 22:30N 69°36' E 017°05'510.5
2018-Jun-07 22:00N 69°34' E 016°51'510.3
2018-Jun-07 21:30N 69°31' E 016°38'510.3
2018-Jun-07 21:00N 69°29' E 016°24'510.7
2018-Jun-07 20:30N 69°27' E 016°11'610.9
2018-Jun-07 19:59N 69°24' E 015°57'611.7
2018-Jun-07 19:30N 69°21' E 015°43'611.3
2018-Jun-07 19:00N 69°18' E 015°29'611.2
2018-Jun-07 18:29N 69°15' E 015°15'611.3
2018-Jun-07 17:58N 69°12' E 015°01'511.3
2018-Jun-07 17:29N 69°09' E 014°49'510.5
2018-Jun-07 17:00N 69°05' E 014°39'510.5
2018-Jun-07 16:30N 69°02' E 014°27'510.4
2018-Jun-07 16:00N 68°59' E 014°17'510.5
2018-Jun-07 15:30N 68°55' E 014°06'510.7
2018-Jun-07 15:00N 68°51' E 013°56'510.5
2018-Jun-07 14:30N 68°47' E 013°45'510.1
2018-Jun-07 14:00N 68°44' E 013°36'510.2
2018-Jun-07 13:30N 68°40' E 013°26'510.2
2018-Jun-07 13:00N 68°37' E 013°15'510.3
2018-Jun-07 12:30N 68°33' E 013°05'510.3
2018-Jun-07 12:00N 68°30' E 012°54'510.2
2018-Jun-07 11:30N 68°26' E 012°44'510.1
2018-Jun-07 11:00N 68°23' E 012°34'  
Track history (hours):
 
Tides and Currents Weather Stations Pressure Air Temp Water Temp Dewpoint Dewpoint Depression Visibility Wind Speed Wind Dir Waves Ship Positions

Ole-arvid Nergaard

Last reported at 2018-Jun-13 15:03 UTC. Time now 2018-Jun-23 17:42 UTC.
Position N 70°16' E 018°04'.
Warning: this ship's position is 10 days out of date.

Length 55 m; draft 7.2 m.

Type: Fishing. MMSI: 259656000.

Date/timePositionNaut miles runAvg speedWind from/ knotsBaromVisibWave heightAir tempDewpointWater temp
2018-Jun-13 15:03N 70°16' E 018°04'111.9
2018-Jun-13 15:00N 70°16' E 018°05'611.5
2018-Jun-13 14:29N 70°10' E 018°06'611.4
2018-Jun-13 14:00N 70°04' E 018°08'611.4
2018-Jun-13 13:30N 69°59' E 018°10'510.7
2018-Jun-13 13:00N 69°56' E 018°25'611.5
2018-Jun-13 12:30N 69°55' E 018°41'611.9
2018-Jun-13 12:00N 69°51' E 018°54'611.9
2018-Jun-13 11:30N 69°46' E 019°04'4 7.8
2018-Jun-13 11:00N 69°42' E 019°03'2 4.6
2018-Jun-13 10:30N 69°40' E 018°59'1 1.8
2018-Jun-13 10:00N 69°40' E 018°58'0 0.0
2018-Jun-13 09:29N 69°40' E 018°58'0 0.0
2018-Jun-13 09:00N 69°40' E 018°58'0 0.0
2018-Jun-13 08:30N 69°40' E 018°58'0 0.0
2018-Jun-13 08:00N 69°40' E 018°58'0 0.0
2018-Jun-13 07:30N 69°40' E 018°58'0 0.0
2018-Jun-13 06:59N 69°40' E 018°58'0 0.0
2018-Jun-13 06:29N 69°40' E 018°58'0 0.0
2018-Jun-13 06:01N 69°40' E 018°58'0 0.0
2018-Jun-13 05:30N 69°40' E 018°58'0 0.0
2018-Jun-13 04:59N 69°40' E 018°58'0 0.0
2018-Jun-13 04:30N 69°40' E 018°58'0 0.1
2018-Jun-13 04:00N 69°40' E 018°58'4 8.1
2018-Jun-13 03:30N 69°43' E 019°03'510.1
2018-Jun-13 02:59N 69°48' E 019°01'5 9.7
2018-Jun-13 02:30N 69°52' E 018°52'510.9
2018-Jun-13 02:00N 69°55' E 018°39'510.7
2018-Jun-13 01:30N 69°57' E 018°24'510.1
2018-Jun-13 01:00N 69°58' E 018°10'611.2
2018-Jun-13 00:30N 70°04' E 018°11'611.5
2018-Jun-13 00:00N 70°10' E 018°13'611.6
2018-Jun-12 23:29N 70°16' E 018°12'  
2018-Jun-09 01:16N 69°58' E 016°57'711.2
2018-Jun-09 00:37N 69°54' E 016°39'112.3
2018-Jun-09 00:30N 69°52' E 016°39'612.6
2018-Jun-09 00:01N 69°47' E 016°28'612.4
2018-Jun-08 23:30N 69°42' E 016°17'612.2
2018-Jun-08 23:00N 69°37' E 016°07'4 8.0
2018-Jun-08 22:30N 69°34' E 015°59'1 2.8
2018-Jun-08 22:00N 69°36' E 015°58'2 3.6
2018-Jun-08 21:30N 69°38' E 015°57'2 3.6
2018-Jun-08 21:00N 69°39' E 015°58'2 3.9
2018-Jun-08 20:30N 69°40' E 016°03'2 4.2
2018-Jun-08 20:00N 69°40' E 016°09'2 4.2
2018-Jun-08 19:30N 69°40' E 016°15'2 4.4
2018-Jun-08 19:00N 69°38' E 016°19'2 3.5
2018-Jun-08 18:30N 69°37' E 016°24'5 9.1
2018-Jun-08 18:00N 69°38' E 016°37'611.3
2018-Jun-08 17:30N 69°38' E 016°53'611.2
2018-Jun-08 17:00N 69°39' E 017°09'511.1
2018-Jun-08 16:30N 69°39' E 017°25'611.1
2018-Jun-08 16:00N 69°40' E 017°41'510.3
2018-Jun-08 15:30N 69°36' E 017°52'612.0
2018-Jun-08 14:59N 69°32' E 018°04'611.3
2018-Jun-08 14:30N 69°31' E 018°20'611.3
2018-Jun-08 14:00N 69°33' E 018°35'511.2
2018-Jun-08 13:30N 69°35' E 018°50'4 7.3
2018-Jun-08 13:00N 69°38' E 018°57'0 0.0
2018-Jun-08 12:30N 69°38' E 018°57'0 0.0
2018-Jun-08 12:00N 69°38' E 018°57'0 0.0
2018-Jun-08 11:30N 69°38' E 018°57'0 0.0
2018-Jun-08 11:00N 69°38' E 018°57'0 0.0
2018-Jun-08 10:30N 69°38' E 018°57'0 0.0
2018-Jun-08 10:00N 69°38' E 018°57'0 0.0
2018-Jun-08 09:30N 69°38' E 018°57'0 0.0
2018-Jun-08 09:00N 69°38' E 018°57'0 0.0
2018-Jun-08 08:30N 69°38' E 018°57'0 0.0
2018-Jun-08 07:59N 69°38' E 018°57'0 0.0
2018-Jun-08 07:30N 69°38' E 018°57'0 0.0
2018-Jun-08 07:01N 69°38' E 018°57'0 0.0
2018-Jun-08 06:31N 69°38' E 018°57'1 1.5
2018-Jun-08 06:00N 69°37' E 018°55'0 0.3
2018-Jun-08 05:30N 69°37' E 018°54'0 0.4
2018-Jun-08 05:00N 69°37' E 018°54'0 0.6
2018-Jun-08 04:30N 69°37' E 018°55'3 5.1
2018-Jun-08 04:00N 69°39' E 018°59'1 2.5
2018-Jun-08 03:31N 69°40' E 018°59'0 0.0
2018-Jun-08 03:01N 69°40' E 018°59'4 8.3
2018-Jun-08 02:30N 69°37' E 018°54'611.7
2018-Jun-08 02:01N 69°33' E 018°41'611.4
2018-Jun-08 01:30N 69°31' E 018°25'611.1
2018-Jun-08 01:00N 69°31' E 018°09'511.0
2018-Jun-08 00:30N 69°34' E 017°57'510.8
2018-Jun-08 00:01N 69°39' E 017°48'510.5
2018-Jun-07 23:29N 69°40' E 017°32'510.6
2018-Jun-07 23:01N 69°38' E 017°19'510.4
2018-Jun-07 22:30N 69°36' E 017°05'510.5
2018-Jun-07 22:00N 69°34' E 016°51'510.3
2018-Jun-07 21:30N 69°31' E 016°38'510.3
2018-Jun-07 21:00N 69°29' E 016°24'510.7
2018-Jun-07 20:30N 69°27' E 016°11'610.9
2018-Jun-07 19:59N 69°24' E 015°57'611.7
2018-Jun-07 19:30N 69°21' E 015°43'611.3
2018-Jun-07 19:00N 69°18' E 015°29'611.2
2018-Jun-07 18:29N 69°15' E 015°15'611.3
2018-Jun-07 17:58N 69°12' E 015°01'511.3
2018-Jun-07 17:29N 69°09' E 014°49'510.5
2018-Jun-07 17:00N 69°05' E 014°39'510.5
2018-Jun-07 16:30N 69°02' E 014°27'510.4
2018-Jun-07 16:00N 68°59' E 014°17'510.5
2018-Jun-07 15:30N 68°55' E 014°06'510.7
2018-Jun-07 15:00N 68°51' E 013°56'510.5
2018-Jun-07 14:30N 68°47' E 013°45'510.1
2018-Jun-07 14:00N 68°44' E 013°36'510.2
2018-Jun-07 13:30N 68°40' E 013°26'510.2
2018-Jun-07 13:00N 68°37' E 013°15'510.3
2018-Jun-07 12:30N 68°33' E 013°05'510.3
2018-Jun-07 12:00N 68°30' E 012°54'510.2
2018-Jun-07 11:30N 68°26' E 012°44'510.1
2018-Jun-07 11:00N 68°23' E 012°34'  

Dump ship's entire track history